Time;durP1;ratioP1;P1;durP2;ratioP2;P2;SDS_P1;SDS_P2;PMS_P1;PMS_P2;Temp;Humidity;BMP_temperature;BMP_pressure;BME280_temperature;BME280_humidity;BME280_pressure;Samples;Min_cycle;Max_cycle;Signal;HPM_P1;HPM_P2
2021/11/06 00:00:34;;;;;;;16.20;13.80;;;;;;;6.33;86.86;99941.43;112487;1193;60998;-77
2021/11/06 00:03:15;;;;;;;16.70;14.40;;;;;;;6.33;86.81;99946.02;112508;1193;61004;-77
2021/11/06 00:05:42;;;;;;;16.00;13.80;;;;;;;6.33;86.81;99946.60;112538;1193;66044;-79
2021/11/06 00:08:08;;;;;;;16.20;14.30;;;;;;;6.32;86.87;99946.61;112530;1193;60968;-79
2021/11/06 00:10:35;;;;;;;16.10;14.50;;;;;;;6.32;86.97;99946.97;112521;1192;64030;-77
2021/11/06 00:13:02;;;;;;;16.00;14.40;;;;;;;6.32;86.97;99943.27;112534;1193;60978;-76
2021/11/06 00:15:29;;;;;;;15.00;13.60;;;;;;;6.32;86.98;99943.26;112548;1193;60975;-77
2021/11/06 00:17:55;;;;;;;14.80;13.20;;;;;;;6.32;87.09;99942.73;112596;1192;66973;-76
2021/11/06 00:20:22;;;;;;;13.80;12.40;;;;;;;6.30;87.07;99941.73;112564;1193;61072;-75
2021/11/06 00:22:49;;;;;;;14.60;13.10;;;;;;;6.29;87.18;99945.66;112536;1192;64974;-77
2021/11/06 00:25:16;;;;;;;18.70;13.90;;;;;;;6.28;87.26;99947.47;112573;1193;61064;-77
2021/11/06 00:27:44;;;;;;;14.00;12.60;;;;;;;6.28;87.28;99952.39;112560;1193;61007;-76
2021/11/06 00:30:11;;;;;;;14.60;12.40;;;;;;;6.28;87.29;99951.67;112622;1193;65968;-77
2021/11/06 00:32:39;;;;;;;15.40;13.30;;;;;;;6.29;87.34;99955.89;112533;1193;60982;-77
2021/11/06 00:35:08;;;;;;;14.20;12.70;;;;;;;6.29;87.29;99957.30;112497;1192;62638;-77
2021/11/06 00:37:37;;;;;;;15.20;13.60;;;;;;;6.29;87.32;99957.13;112575;1192;61016;-76
2021/11/06 00:40:05;;;;;;;12.90;11.40;;;;;;;6.29;87.34;99955.00;112468;1193;61023;-72
2021/11/06 00:42:33;;;;;;;14.90;12.10;;;;;;;6.30;87.31;99957.27;112502;1193;65978;-74
2021/11/06 00:45:00;;;;;;;14.70;13.20;;;;;;;6.30;87.29;99954.29;112397;1193;61077;-73
2021/11/06 00:47:26;;;;;;;13.40;12.00;;;;;;;6.30;87.33;99953.58;112456;1192;64058;-73
2021/11/06 00:49:53;;;;;;;14.50;13.00;;;;;;;6.30;87.30;99954.29;112556;1191;61049;-77
2021/11/06 00:52:19;;;;;;;14.90;13.30;;;;;;;6.29;87.29;99953.42;112521;1192;61025;-77
2021/11/06 00:54:46;;;;;;;15.10;12.70;;;;;;;6.29;87.29;99956.60;112198;1193;66092;-77
2021/11/06 00:57:13;;;;;;;15.40;13.10;;;;;;;6.28;87.27;99960.50;112545;1192;61052;-77
2021/11/06 00:59:39;;;;;;;13.50;11.70;;;;;;;6.27;87.36;99957.02;112526;1193;62934;-77
2021/11/06 01:02:06;;;;;;;13.70;12.20;;;;;;;6.26;87.32;99954.60;112513;1193;61055;-77
2021/11/06 01:04:34;;;;;;;14.30;12.80;;;;;;;6.24;87.31;99955.54;112549;1192;61016;-76
2021/11/06 01:07:01;;;;;;;14.30;12.90;;;;;;;6.23;87.34;99958.07;112529;1193;66012;-75
2021/11/06 01:09:27;;;;;;;14.20;12.80;;;;;;;6.20;87.42;99963.26;112525;1191;61079;-75
2021/11/06 01:11:54;;;;;;;14.80;13.30;;;;;;;6.17;87.46;99960.02;112491;1193;64013;-76
2021/11/06 01:14:21;;;;;;;13.50;12.10;;;;;;;6.15;87.51;99959.02;112520;1192;61026;-76
2021/11/06 01:16:48;;;;;;;13.00;11.60;;;;;;;6.13;87.57;99959.08;112514;1193;61061;-75
2021/11/06 01:19:14;;;;;;;13.20;11.80;;;;;;;6.11;87.60;99960.20;112413;1192;65993;-76
2021/11/06 01:21:41;;;;;;;13.00;11.50;;;;;;;6.09;87.60;99963.42;112530;1176;61062;-76
2021/11/06 01:24:08;;;;;;;14.50;11.70;;;;;;;6.07;87.58;99965.28;112475;1192;62465;-76
2021/11/06 01:26:35;;;;;;;13.80;12.10;;;;;;;6.04;87.63;99967.30;112506;1176;61074;-74
2021/11/06 01:29:02;;;;;;;11.80;10.60;;;;;;;6.02;87.69;99963.15;112542;1193;61055;-77
2021/11/06 01:31:29;;;;;;;12.10;10.90;;;;;;;6.01;87.72;99964.27;112517;1192;64701;-77
2021/11/06 01:33:56;;;;;;;13.50;12.10;;;;;;;5.99;87.76;99967.46;112498;1192;61007;-75
2021/11/06 01:36:23;;;;;;;12.60;11.00;;;;;;;5.99;87.78;99967.13;112386;1193;64962;-74
2021/11/06 01:38:50;;;;;;;12.70;11.40;;;;;;;5.98;87.75;99962.04;112489;1192;62204;-74
2021/11/06 01:41:16;;;;;;;12.50;11.30;;;;;;;5.98;87.76;99965.05;112500;1192;61871;-75
2021/11/06 01:43:43;;;;;;;13.30;11.90;;;;;;;5.97;87.86;99962.95;112480;1193;65468;-75
2021/11/06 01:46:11;;;;;;;13.10;11.50;;;;;;;5.96;87.83;99959.10;112525;1192;61823;-76
2021/11/06 01:48:37;;;;;;;12.80;11.50;;;;;;;5.95;87.81;99958.63;112489;1192;64978;-76
2021/11/06 01:51:05;;;;;;;12.00;10.80;;;;;;;5.92;87.80;99956.38;112543;1193;61829;-77
2021/11/06 01:53:32;;;;;;;13.20;11.80;;;;;;;5.92;87.81;99961.50;112523;1193;61885;-76
2021/11/06 01:56:00;;;;;;;13.20;10.60;;;;;;;5.91;87.96;99958.89;112525;1193;66842;-76
2021/11/06 01:58:29;;;;;;;12.70;11.10;;;;;;;5.90;87.91;99956.09;112487;1193;61827;-75
2021/11/06 02:00:58;;;;;;;11.90;10.70;;;;;;;5.90;87.90;99955.58;112526;1193;64168;-75
2021/11/06 02:03:24;;;;;;;12.10;10.80;;;;;;;5.90;87.97;99961.58;112526;1192;61841;-75
2021/11/06 02:05:52;;;;;;;12.70;10.50;;;;;;;5.88;87.97;99961.27;112504;1188;61855;-75
2021/11/06 02:08:18;;;;;;;12.10;10.80;;;;;;;5.89;87.88;99961.42;112443;1193;65544;-75
2021/11/06 02:10:46;;;;;;;12.10;9.90;;;;;;;5.89;87.96;99958.95;112514;1184;61839;-75
2021/11/06 02:13:13;;;;;;;11.60;10.10;;;;;;;5.88;87.97;99958.27;112552;1192;63983;-76
2021/11/06 02:15:40;;;;;;;13.30;10.60;;;;;;;5.88;87.99;99956.34;112551;1192;61861;-76
2021/11/06 02:18:07;;;;;;;12.40;11.10;;;;;;;5.88;88.01;99958.26;112527;1192;61813;-75
2021/11/06 02:20:34;;;;;;;11.10;9.90;;;;;;;5.88;87.96;99954.73;112516;1192;65442;-75
2021/11/06 02:23:01;;;;;;;11.30;10.10;;;;;;;5.87;87.96;99953.90;112386;1192;61839;-75
2021/11/06 02:25:27;;;;;;;11.90;10.70;;;;;;;5.87;88.03;99954.80;112410;1192;64021;-75
2021/11/06 02:27:54;;;;;;;11.40;10.10;;;;;;;5.85;88.04;99957.30;112479;1192;61851;-75
2021/11/06 02:30:21;;;;;;;11.60;10.50;;;;;;;5.84;88.03;99957.33;112519;1192;61880;-75
2021/11/06 02:32:50;;;;;;;11.60;10.40;;;;;;;5.84;88.06;99961.92;112496;1193;65773;-74
2021/11/06 02:35:17;;;;;;;14.10;11.10;;;;;;;5.84;88.09;99960.86;112540;1193;61806;-75
2021/11/06 02:37:44;;;;;;;10.70;9.60;;;;;;;5.83;88.16;99961.44;112476;1192;64001;-75
2021/11/06 02:40:12;;;;;;;11.00;9.50;;;;;;;5.82;88.08;99967.10;112570;1193;61849;-75
2021/11/06 02:42:41;;;;;;;12.00;10.10;;;;;;;5.83;88.10;99975.04;112536;1184;61849;-75
2021/11/06 02:45:09;;;;;;;11.90;10.70;;;;;;;5.83;88.16;99962.52;112525;1193;65609;-76
2021/11/06 02:47:36;;;;;;;12.10;10.90;;;;;;;5.82;88.21;99956.16;112542;1192;61826;-75
2021/11/06 02:50:04;;;;;;;13.00;11.60;;;;;;;5.80;88.17;99962.06;112481;1193;62322;-75
2021/11/06 02:52:31;;;;;;;12.30;11.10;;;;;;;5.77;88.17;99967.61;112537;1193;61797;-75
2021/11/06 02:54:58;;;;;;;13.10;11.70;;;;;;;5.75;88.23;99968.39;112524;1193;61826;-75
2021/11/06 02:57:24;;;;;;;12.80;11.50;;;;;;;5.75;88.25;99964.01;112497;1192;67837;-75
2021/11/06 02:59:52;;;;;;;11.00;10.00;;;;;;;5.74;88.29;99965.08;112486;1193;61829;-80
2021/11/06 03:02:18;;;;;;;10.60;9.60;;;;;;;5.73;88.29;99965.27;112489;1192;62639;-77
2021/11/06 03:04:45;;;;;;;12.40;10.80;;;;;;;5.71;88.34;99973.45;112466;1192;61782;-77
2021/11/06 03:07:12;;;;;;;11.60;10.30;;;;;;;5.69;88.32;99974.38;112504;1192;61765;-75
2021/11/06 03:09:39;;;;;;;11.70;10.30;;;;;;;5.66;88.32;99976.97;112502;1193;66984;-75
2021/11/06 03:12:10;;;;;;;10.50;9.20;;;;;;;5.62;88.31;99982.02;112484;1193;61744;-75
2021/11/06 03:14:38;;;;;;;10.90;9.70;;;;;;;5.57;88.36;99988.89;112516;1193;64021;-75
2021/11/06 03:17:04;;;;;;;11.30;10.10;;;;;;;5.50;88.38;99991.17;112529;1191;61873;-75
2021/11/06 03:19:31;;;;;;;14.10;9.90;;;;;;;5.44;88.40;99988.90;112520;1192;61782;-76
2021/11/06 03:21:59;;;;;;;11.30;10.30;;;;;;;5.38;88.53;99984.52;112527;1193;66690;-74
2021/11/06 03:24:26;;;;;;;10.30;9.20;;;;;;;5.32;88.55;99990.15;112499;1193;61858;-76
2021/11/06 03:26:53;;;;;;;10.20;9.20;;;;;;;5.26;88.70;99992.63;112472;1192;63987;-76
2021/11/06 03:29:20;;;;;;;9.80;9.00;;;;;;;5.20;88.77;99995.95;112522;1192;61775;-76
2021/11/06 03:31:47;;;;;;;9.60;8.60;;;;;;;5.15;88.79;99992.76;112494;1192;61874;-76
2021/11/06 03:34:15;;;;;;;9.50;8.30;;;;;;;5.10;88.84;99995.55;112490;1193;66774;-76
2021/11/06 03:36:41;;;;;;;9.00;7.90;;;;;;;5.05;88.90;99996.38;112552;1192;61842;-74
2021/11/06 03:39:08;;;;;;;10.60;9.60;;;;;;;5.03;89.12;99997.86;112468;1191;63910;-77
2021/11/06 03:41:35;;;;;;;9.40;8.60;;;;;;;5.03;89.18;99999.64;112522;1193;62291;-76
2021/11/06 03:44:02;;;;;;;11.20;9.90;;;;;;;5.02;89.24;99998.23;112484;1192;61817;-76
2021/11/06 03:46:28;;;;;;;10.60;9.60;;;;;;;5.00;89.27;100000.75;112523;1192;68239;-78
2021/11/06 03:48:56;;;;;;;9.90;8.50;;;;;;;4.98;89.31;99999.38;112536;1192;61686;-77
2021/11/06 03:51:22;;;;;;;9.80;8.80;;;;;;;4.96;89.30;100003.67;112536;1192;65049;-76
2021/11/06 03:53:50;;;;;;;9.80;8.90;;;;;;;4.95;89.43;100012.52;112544;1192;61900;-76
2021/11/06 03:56:17;;;;;;;10.60;9.60;;;;;;;4.94;89.46;100010.07;112567;1193;61983;-77
2021/11/06 03:58:43;;;;;;;9.80;8.90;;;;;;;4.94;89.53;100013.09;112613;1192;65703;-77
2021/11/06 04:01:10;;;;;;;11.00;9.90;;;;;;;4.93;89.46;100013.09;112554;1192;61739;-77
2021/11/06 04:03:37;;;;;;;10.20;9.10;;;;;;;4.91;89.52;100015.09;112560;1192;65006;-76
2021/11/06 04:06:04;;;;;;;9.40;8.50;;;;;;;4.89;89.54;100016.39;112532;1193;61782;-75
2021/11/06 04:08:30;;;;;;;10.00;9.00;;;;;;;4.88;89.58;100017.13;112450;1192;61899;-77
2021/11/06 04:10:57;;;;;;;11.30;10.10;;;;;;;4.85;89.62;100017.20;112514;1192;66870;-76
2021/11/06 04:13:24;;;;;;;11.20;10.00;;;;;;;4.82;89.56;100019.56;112466;1193;61834;-76
2021/11/06 04:15:51;;;;;;;11.40;9.90;;;;;;;4.80;89.59;100020.49;112481;1193;62926;-75
2021/11/06 04:18:18;;;;;;;11.30;10.20;;;;;;;4.79;89.58;100026.16;112494;1191;61902;-76
2021/11/06 04:20:45;;;;;;;12.90;10.70;;;;;;;4.77;89.59;100024.98;112393;1192;61785;-75
2021/11/06 04:23:12;;;;;;;13.80;11.10;;;;;;;4.76;89.56;100023.95;112514;1192;67915;-75
2021/11/06 04:25:39;;;;;;;13.70;11.60;;;;;;;4.75;89.61;100021.33;112515;1192;61819;-74
2021/11/06 04:28:06;;;;;;;12.40;10.80;;;;;;;4.76;89.56;100020.42;112524;1192;62606;-75
2021/11/06 04:30:33;;;;;;;12.20;10.50;;;;;;;4.77;89.58;100021.30;112352;1192;61972;-74
2021/11/06 04:32:59;;;;;;;11.20;9.90;;;;;;;4.75;89.56;100022.04;112407;1193;62573;-76
2021/11/06 04:35:26;;;;;;;12.90;11.60;;;;;;;4.73;89.50;100022.79;112528;1192;65491;-74
2021/11/06 04:37:52;;;;;;;12.60;11.00;;;;;;;4.71;89.59;100025.48;112529;1192;61876;-75
2021/11/06 04:40:19;;;;;;;13.00;11.60;;;;;;;4.71;89.53;100023.73;112486;1193;63894;-75
2021/11/06 04:42:46;;;;;;;15.70;11.80;;;;;;;4.70;89.57;100023.39;112471;1192;61953;-75
2021/11/06 04:45:13;;;;;;;15.80;12.70;;;;;;;4.70;89.56;100029.73;112308;1192;61861;-75
2021/11/06 04:47:39;;;;;;;16.50;11.90;;;;;;;4.71;89.60;100032.16;112471;1192;67824;-75
2021/11/06 04:50:08;;;;;;;18.30;12.40;;;;;;;4.72;89.55;100031.80;112525;1193;61785;-75
2021/11/06 04:52:36;;;;;;;17.10;13.60;;;;;;;4.70;89.46;100032.73;112532;1192;64056;-77
2021/11/06 04:55:09;;;;;;;14.70;11.90;;;;;;;4.66;89.42;100030.02;112499;1192;61961;-76
2021/11/06 04:57:36;;;;;;;14.30;11.60;;;;;;;4.60;89.45;100031.92;112376;1192;61873;-77
2021/11/06 05:00:10;;;;;;;17.30;11.90;;;;;;;4.56;89.55;100038.02;112499;1192;66555;-76
2021/11/06 05:02:37;;;;;;;15.70;12.40;;;;;;;4.54;89.61;100041.23;112519;1192;61839;-76
2021/11/06 05:05:05;;;;;;;14.80;12.10;;;;;;;4.54;89.70;100042.83;112511;1193;64081;-75
2021/11/06 05:07:31;;;;;;;16.50;14.00;;;;;;;4.54;89.75;100043.54;112549;1192;61807;-74
2021/11/06 05:09:58;;;;;;;14.20;12.20;;;;;;;4.56;89.77;100045.58;112529;1192;61852;-75
2021/11/06 05:12:25;;;;;;;14.10;12.30;;;;;;;4.60;89.79;100048.48;112523;1192;66991;-75
2021/11/06 05:14:52;;;;;;;15.50;13.00;;;;;;;4.65;89.81;100051.52;112553;1193;61887;-77
2021/11/06 05:17:19;;;;;;;14.30;12.50;;;;;;;4.68;89.73;100055.32;112522;1192;64134;-75
2021/11/06 05:19:47;;;;;;;15.30;12.60;;;;;;;4.71;89.68;100057.89;112494;1192;61804;-75
2021/11/06 05:22:14;;;;;;;14.60;12.10;;;;;;;4.74;89.68;100063.09;112418;1192;61823;-75
2021/11/06 05:24:40;;;;;;;18.40;14.10;;;;;;;4.77;89.70;100064.76;112522;1192;66841;-75
2021/11/06 05:27:07;;;;;;;15.70;13.40;;;;;;;4.79;89.67;100063.66;112506;1193;61856;-75
2021/11/06 05:29:34;;;;;;;19.10;14.80;;;;;;;4.81;89.68;100066.95;112487;1192;63893;-77
2021/11/06 05:32:01;;;;;;;18.00;14.20;;;;;;;4.83;89.65;100069.17;112483;1191;61832;-75
2021/11/06 05:34:27;;;;;;;16.80;13.60;;;;;;;4.86;89.59;100065.77;112366;1192;61800;-74
2021/11/06 05:36:54;;;;;;;16.40;13.40;;;;;;;4.90;89.54;100064.63;112467;1193;66821;-76
2021/11/06 05:39:22;;;;;;;14.80;13.00;;;;;;;4.91;89.54;100065.45;112506;1191;61849;-75
2021/11/06 05:41:49;;;;;;;15.10;13.10;;;;;;;4.93;89.55;100064.33;112506;1193;63254;-75
2021/11/06 05:44:16;;;;;;;14.40;12.00;;;;;;;4.96;89.46;100067.61;112502;1192;62494;-75
2021/11/06 05:46:43;;;;;;;15.40;13.30;;;;;;;4.99;89.45;100068.76;112489;1183;61858;-77
2021/11/06 05:49:09;;;;;;;13.60;12.00;;;;;;;5.02;89.41;100071.51;112532;1184;67868;-77
2021/11/06 05:51:38;;;;;;;13.40;11.80;;;;;;;5.05;89.35;100073.17;112541;1193;61855;-76
2021/11/06 05:54:05;;;;;;;13.40;11.90;;;;;;;5.08;89.17;100074.15;112571;1193;65011;-76
2021/11/06 05:56:31;;;;;;;14.50;11.60;;;;;;;5.10;89.17;100076.92;112364;1192;61936;-76
2021/11/06 05:58:58;;;;;;;13.70;11.40;;;;;;;5.13;89.13;100082.31;112479;1177;61855;-76
2021/11/06 06:01:25;;;;;;;14.20;12.00;;;;;;;5.15;89.11;100088.42;112506;1192;66911;-75
2021/11/06 06:03:52;;;;;;;14.40;12.80;;;;;;;5.17;89.03;100090.30;112502;1192;61791;-76
2021/11/06 06:06:20;;;;;;;12.90;11.60;;;;;;;5.18;88.92;100090.45;112524;1192;63986;-77
2021/11/06 06:08:47;;;;;;;15.30;11.90;;;;;;;5.18;88.88;100092.90;112501;1192;62416;-77
2021/11/06 06:11:13;;;;;;;15.10;12.10;;;;;;;5.17;88.82;100092.75;112489;1193;61778;-75
2021/11/06 06:13:41;;;;;;;19.50;14.60;;;;;;;5.15;88.81;100093.52;112515;1193;65423;-77
2021/11/06 06:16:07;;;;;;;21.20;14.50;;;;;;;5.13;88.82;100100.27;112520;1193;61949;-77
2021/11/06 06:18:34;;;;;;;22.10;14.00;;;;;;;5.11;88.87;100100.68;112519;1192;64015;-75
2021/11/06 06:21:01;;;;;;;20.10;14.70;;;;;;;5.09;88.78;100104.42;112493;1192;61964;-75
2021/11/06 06:23:27;;;;;;;20.50;14.10;;;;;;;5.09;88.78;100106.02;112412;1192;61919;-77
2021/11/06 06:25:54;;;;;;;22.20;15.10;;;;;;;5.09;88.78;100106.73;112514;1192;66823;-76
2021/11/06 06:28:20;;;;;;;22.70;15.90;;;;;;;5.10;88.71;100107.04;112520;1193;61823;-77
2021/11/06 06:30:47;;;;;;;18.90;14.40;;;;;;;5.13;88.67;100106.24;112511;1193;65040;-76
2021/11/06 06:33:14;;;;;;;23.60;16.40;;;;;;;5.15;88.65;100111.65;112495;1192;61846;-77
2021/11/06 06:35:40;;;;;;;31.10;20.40;;;;;;;5.15;88.63;100116.41;112507;1177;61851;-75
2021/11/06 06:38:08;;;;;;;34.00;22.70;;;;;;;5.14;88.57;100119.79;112501;1192;67810;-77
2021/11/06 06:40:34;;;;;;;37.10;21.00;;;;;;;5.13;88.60;100121.56;112492;1177;61852;-75
2021/11/06 06:43:01;;;;;;;28.40;19.00;;;;;;;5.12;88.51;100127.59;112529;1192;62317;-73
2021/11/06 06:45:28;;;;;;;25.40;18.20;;;;;;;5.08;88.51;100129.98;112468;1191;61829;-78
2021/11/06 06:47:54;;;;;;;24.20;16.50;;;;;;;5.05;88.46;100136.04;112469;1193;61810;-77
2021/11/06 06:50:21;;;;;;;23.10;15.70;;;;;;;5.04;88.43;100136.44;112514;1192;66700;-77
2021/11/06 06:52:48;;;;;;;24.70;17.50;;;;;;;5.03;88.52;100136.65;112548;1193;61852;-77
2021/11/06 06:55:15;;;;;;;20.60;15.10;;;;;;;5.04;88.53;100137.66;112477;1192;63961;-77
2021/11/06 06:57:42;;;;;;;19.70;15.20;;;;;;;5.07;88.51;100137.95;112506;1191;61829;-77
2021/11/06 07:00:11;;;;;;;18.50;13.90;;;;;;;5.13;88.54;100142.73;112505;1192;61782;-76
2021/11/06 07:02:38;;;;;;;20.80;15.20;;;;;;;5.20;88.53;100149.75;112519;1193;66971;-76
2021/11/06 07:05:06;;;;;;;17.60;14.00;;;;;;;5.27;88.51;100151.34;112488;1192;61833;-75
2021/11/06 07:07:33;;;;;;;18.80;15.10;;;;;;;5.34;88.53;100152.73;112512;1192;62645;-75
2021/11/06 07:10:00;;;;;;;15.60;13.90;;;;;;;5.42;88.46;100157.45;112338;1192;61820;-75
2021/11/06 07:12:26;;;;;;;16.80;13.40;;;;;;;5.50;88.45;100160.58;112526;1191;61826;-75
2021/11/06 07:14:54;;;;;;;15.60;12.80;;;;;;;5.58;88.34;100157.73;112547;1192;66907;-75
2021/11/06 07:17:20;;;;;;;14.90;11.70;;;;;;;5.66;88.21;100160.48;112514;1193;61844;-76
2021/11/06 07:19:47;;;;;;;15.80;13.10;;;;;;;5.76;88.09;100154.58;112477;1192;62613;-75
2021/11/06 07:22:15;;;;;;;16.30;13.00;;;;;;;5.85;88.07;100158.89;112486;1177;61941;-76
2021/11/06 07:24:41;;;;;;;18.60;12.10;;;;;;;5.94;87.93;100160.23;112540;1192;61807;-75
2021/11/06 07:27:08;;;;;;;15.20;10.60;;;;;;;6.04;87.84;100157.86;112494;1192;65154;-75
2021/11/06 07:29:36;;;;;;;14.70;11.10;;;;;;;6.12;87.69;100154.41;112507;1193;61881;-75
2021/11/06 07:32:03;;;;;;;12.10;10.30;;;;;;;6.22;87.57;100161.38;112508;1192;64115;-77
2021/11/06 07:34:30;;;;;;;13.90;10.90;;;;;;;6.31;87.43;100158.44;112520;1192;61823;-75
2021/11/06 07:36:57;;;;;;;13.00;9.60;;;;;;;6.40;87.11;100160.96;112517;1183;61867;-75
2021/11/06 07:39:26;;;;;;;10.90;8.70;;;;;;;6.50;87.06;100158.36;112534;1192;68057;-75
2021/11/06 07:41:53;;;;;;;10.00;8.80;;;;;;;6.60;86.79;100158.23;112489;1192;62826;-77
2021/11/06 07:44:20;;;;;;;9.20;8.00;;;;;;;6.69;86.62;100161.48;112507;1193;64111;-74
2021/11/06 07:46:47;;;;;;;10.50;8.90;;;;;;;6.76;86.47;100161.59;112518;1192;61756;-74
2021/11/06 07:49:14;;;;;;;8.00;7.20;;;;;;;6.85;86.45;100165.02;112505;1191;61852;-75
2021/11/06 07:51:41;;;;;;;7.90;7.10;;;;;;;6.92;86.23;100169.02;112549;1192;67774;-76
2021/11/06 07:54:07;;;;;;;9.30;7.90;;;;;;;6.99;85.83;100166.33;112496;1192;61842;-76
2021/11/06 07:56:36;;;;;;;8.80;7.90;;;;;;;7.07;85.67;100162.71;112294;1192;62940;-77
2021/11/06 07:59:03;;;;;;;7.70;6.90;;;;;;;7.15;85.33;100163.32;112532;1192;62246;-76
2021/11/06 08:01:30;;;;;;;8.30;7.50;;;;;;;7.22;85.16;100162.90;112532;1191;61855;-75
2021/11/06 08:03:56;;;;;;;9.70;8.30;;;;;;;7.30;85.04;100166.88;112514;1193;65477;-77
2021/11/06 08:06:23;;;;;;;9.60;8.60;;;;;;;7.37;84.97;100166.08;112495;1192;62638;-75
2021/11/06 08:08:50;;;;;;;11.50;10.30;;;;;;;7.45;85.07;100168.44;112505;1192;64686;-75
2021/11/06 08:11:16;;;;;;;8.80;7.90;;;;;;;7.53;84.84;100169.92;112553;1192;61753;-75
2021/11/06 08:13:43;;;;;;;8.40;6.80;;;;;;;7.62;84.69;100174.92;112532;1193;61782;-75
2021/11/06 08:16:10;;;;;;;7.90;7.10;;;;;;;7.68;84.00;100176.81;112563;1192;66783;-75
2021/11/06 08:18:37;;;;;;;7.60;6.60;;;;;;;7.75;84.05;100177.48;112516;1193;61772;-75
2021/11/06 08:21:03;;;;;;;7.90;7.00;;;;;;;7.79;83.76;100177.47;112532;1184;62644;-77
2021/11/06 08:23:30;;;;;;;7.00;6.30;;;;;;;7.85;83.49;100175.14;112564;1193;61842;-74
2021/11/06 08:25:56;;;;;;;6.60;6.00;;;;;;;7.90;83.21;100178.69;112466;1192;61785;-74
2021/11/06 08:28:23;;;;;;;7.30;6.60;;;;;;;7.95;83.04;100179.19;112501;1193;66871;-75
2021/11/06 08:30:50;;;;;;;7.40;6.40;;;;;;;8.01;82.73;100182.70;112490;1192;61934;-75
2021/11/06 08:33:16;;;;;;;7.50;5.90;;;;;;;8.08;82.69;100180.48;112342;1193;73815;-75
2021/11/06 08:35:43;;;;;;;6.40;5.80;;;;;;;8.14;82.45;100181.52;112479;1192;61852;-74
2021/11/06 08:38:11;;;;;;;5.60;5.10;;;;;;;8.18;81.93;100185.80;112514;1192;61845;-74
2021/11/06 08:40:40;;;;;;;7.20;6.40;;;;;;;8.21;81.89;100186.35;112536;1192;65978;-74
2021/11/06 08:43:07;;;;;;;6.90;6.20;;;;;;;8.26;81.95;100185.84;112361;1193;61845;-74
2021/11/06 08:45:34;;;;;;;7.60;5.90;;;;;;;8.32;81.71;100185.77;112368;1192;62640;-76
2021/11/06 08:48:01;;;;;;;7.10;6.40;;;;;;;8.35;81.48;100191.86;112491;1184;61852;-74
2021/11/06 08:50:28;;;;;;;7.40;6.60;;;;;;;8.39;81.63;100192.08;112511;1192;61919;-75
2021/11/06 08:52:55;;;;;;;7.30;6.60;;;;;;;8.43;81.32;100195.32;112489;1192;66850;-75
2021/11/06 08:55:23;;;;;;;8.40;7.50;;;;;;;8.46;81.23;100194.48;112357;1192;61878;-75
2021/11/06 08:57:51;;;;;;;8.40;7.40;;;;;;;8.48;81.02;100194.58;112602;1191;64008;-87
2021/11/06 09:00:26;;;;;;;7.20;6.50;;;;;;;8.50;81.11;100196.62;113030;1192;62023;-87
2021/11/06 09:02:54;;;;;;;7.60;6.80;;;;;;;8.53;80.89;100195.45;112732;1192;61782;-87
2021/11/06 09:05:21;;;;;;;8.50;7.40;;;;;;;8.54;80.59;100194.85;112720;1193;65462;-89
2021/11/06 09:07:48;;;;;;;7.70;6.90;;;;;;;8.56;80.60;100198.17;112576;1192;61902;-91
2021/11/06 09:10:17;;;;;;;7.70;6.80;;;;;;;8.59;80.56;100199.64;112803;1192;64019;-91
2021/11/06 09:12:45;;;;;;;7.40;6.50;;;;;;;8.62;80.34;100198.27;112891;1191;61836;-87
2021/11/06 09:15:12;;;;;;;7.20;6.50;;;;;;;8.65;80.13;100195.85;112776;1193;61839;-87
2021/11/06 09:17:39;;;;;;;7.20;6.50;;;;;;;8.67;80.09;100193.79;112496;1193;66801;-88
2021/11/06 09:20:08;;;;;;;8.00;6.60;;;;;;;8.72;80.20;100191.67;112533;1192;61875;-89
2021/11/06 09:22:36;;;;;;;8.20;7.00;;;;;;;8.78;80.28;100195.15;112735;1192;62674;-76
2021/11/06 09:25:05;;;;;;;6.90;6.00;;;;;;;8.84;80.09;100194.73;112509;1193;61836;-76
2021/11/06 09:27:32;;;;;;;8.80;7.40;;;;;;;8.89;79.84;100196.48;112544;1192;61932;-76
2021/11/06 09:29:58;;;;;;;8.30;7.50;;;;;;;8.94;79.72;100197.33;112584;1192;67165;-77
2021/11/06 09:32:25;;;;;;;8.30;7.40;;;;;;;8.99;79.59;100199.44;112556;1192;61849;-77
2021/11/06 09:34:52;;;;;;;7.90;7.20;;;;;;;9.04;79.37;100197.13;112520;1192;62975;-74
2021/11/06 09:37:19;;;;;;;9.80;7.70;;;;;;;9.11;78.87;100200.02;112553;1193;61826;-76
2021/11/06 09:39:45;;;;;;;8.20;7.30;;;;;;;9.16;78.66;100204.05;112566;1193;61749;-76
2021/11/06 09:42:12;;;;;;;10.60;8.30;;;;;;;9.21;78.66;100202.95;112536;1192;67267;-74
2021/11/06 09:44:39;;;;;;;10.20;8.20;;;;;;;9.27;78.47;100196.15;112523;1191;61829;-77
2021/11/06 09:47:12;;;;;;;9.10;8.00;;;;;;;9.34;78.48;100195.34;112550;1192;64022;-76
2021/11/06 09:49:40;;;;;;;10.50;8.40;;;;;;;9.42;78.29;100191.23;112533;1192;61791;-77
2021/11/06 09:52:08;;;;;;;8.90;7.90;;;;;;;9.50;77.73;100190.92;112539;1192;61829;-75
2021/11/06 09:54:35;;;;;;;8.20;7.30;;;;;;;9.54;77.54;100184.70;112518;1192;66871;-79
2021/11/06 09:57:02;;;;;;;8.80;7.90;;;;;;;9.63;77.37;100179.89;112300;1193;61959;-79
2021/11/06 09:59:30;;;;;;;10.40;8.50;;;;;;;9.72;77.36;100175.23;112521;1192;65029;-76
2021/11/06 10:01:58;;;;;;;7.30;6.60;;;;;;;9.81;77.06;100173.05;112495;1192;61843;-76
2021/11/06 10:04:26;;;;;;;7.60;6.90;;;;;;;9.88;76.52;100170.95;112548;1192;61864;-75
2021/11/06 10:06:53;;;;;;;8.40;7.00;;;;;;;9.94;76.32;100175.14;112555;1191;67442;-76
2021/11/06 10:09:20;;;;;;;8.60;7.30;;;;;;;10.00;76.40;100172.20;112542;1192;61811;-77
2021/11/06 10:11:49;;;;;;;7.50;6.80;;;;;;;10.07;76.03;100169.53;112485;1193;64025;-75
2021/11/06 10:14:22;;;;;;;8.40;6.70;;;;;;;10.16;75.95;100171.45;112597;1192;61796;-77
2021/11/06 10:16:57;;;;;;;7.10;6.40;;;;;;;10.21;75.73;100168.73;112571;1192;61823;-77
2021/11/06 10:19:29;;;;;;;6.80;6.20;;;;;;;10.30;75.78;100167.27;112566;1193;65792;-77
2021/11/06 10:22:11;;;;;;;8.30;6.20;;;;;;;10.38;75.05;100156.09;112496;1192;61848;-76
2021/11/06 10:24:48;;;;;;;6.80;6.10;;;;;;;10.40;74.80;100153.14;112589;1193;64027;-76
2021/11/06 10:27:22;;;;;;;8.30;6.80;;;;;;;10.44;74.42;100149.02;112520;1193;61855;-76
2021/11/06 10:30:11;;;;;;;7.80;6.40;;;;;;;10.48;74.28;100145.98;112537;1192;61814;-76
2021/11/06 10:32:41;;;;;;;7.30;6.30;;;;;;;10.50;73.92;100143.56;112551;1193;65481;-76
2021/11/06 10:35:12;;;;;;;7.00;6.30;;;;;;;10.53;73.66;100142.91;112535;1192;61727;-76
2021/11/06 10:37:40;;;;;;;8.00;6.90;;;;;;;10.56;73.25;100139.91;112454;1193;64991;-75
2021/11/06 10:40:11;;;;;;;6.30;5.70;;;;;;;10.59;73.05;100140.31;112464;1192;61807;-76
2021/11/06 10:42:49;;;;;;;6.20;5.50;;;;;;;10.60;72.79;100138.30;112530;1192;62169;-76
2021/11/06 10:45:21;;;;;;;7.30;5.70;;;;;;;10.60;71.97;100137.27;112505;1192;67097;-77
2021/11/06 10:48:16;;;;;;;4.90;4.40;;;;;;;10.60;72.11;100137.80;112584;1192;61778;-74
2021/11/06 10:50:50;;;;;;;5.10;4.70;;;;;;;10.63;71.68;100129.80;112427;1193;63995;-75
2021/11/06 10:53:40;;;;;;;4.70;4.20;;;;;;;10.68;71.25;100130.97;112509;1192;61803;-78
2021/11/06 10:56:13;;;;;;;4.10;3.60;;;;;;;10.71;71.16;100128.31;112538;1191;60993;-75
2021/11/06 10:58:44;;;;;;;5.30;4.30;;;;;;;10.78;71.07;100126.78;112479;1192;66653;-75
2021/11/06 11:01:14;;;;;;;4.40;3.60;;;;;;;10.83;70.68;100125.08;112462;1193;61874;-75
2021/11/06 11:03:44;;;;;;;4.50;3.90;;;;;;;10.84;70.49;100121.67;112494;1192;64987;-76
2021/11/06 11:06:18;;;;;;;6.50;4.80;;;;;;;10.87;70.79;100121.48;112497;1192;61811;-77
2021/11/06 11:08:51;;;;;;;5.30;4.50;;;;;;;10.95;70.40;100119.86;112373;1193;61845;-76
2021/11/06 11:11:20;;;;;;;5.20;4.20;;;;;;;11.02;70.20;100117.56;112576;1193;67772;-76
2021/11/06 11:13:51;;;;;;;4.80;4.40;;;;;;;11.01;69.26;100112.44;112505;1177;61846;-75
2021/11/06 11:16:18;;;;;;;4.60;4.20;;;;;;;10.97;69.43;100111.19;112353;1192;64051;-77
2021/11/06 11:18:50;;;;;;;5.50;4.10;;;;;;;10.98;68.75;100104.57;112506;1192;61785;-76